Tigerton, Wisconsin
Current Conditions -  °F | °C
As of 2:55 PM on Sunday 23 Nov 2014 (Local Time) from KCLI Reporting Station
Moderate Rain Moderate Rain  
Wind Chill: 43°   Ceiling: 300
Heat Index: 46°   Visibility: 1.2mi
Dew Point: 45°   Wind: 7mph
Humidity: 93%   Direction: 160°SSE
Pressure: 29.46"   Gusts: NA
Location:  44.74°N, 89.06°W
Report Text: KCLI 232055Z AUTO 16006KT 1 1/4SM RA OVC003 08/07 A2946 RMK AO2
Loading
Personal Weather Stations






























Interactive Weather Map New forecast layout! Learn more

10-Day Weather Forecast

Advertisements
Track Severe Weather on mobile